sensor_id;sensor_type;location;lat;lon;timestamp;P1;durP1;ratioP1;P2;durP2;ratioP2
52322;SDS011;38263;52.920;6.238;2023-02-28T00:02:18;7.50;;;3.75;;
52322;SDS011;38263;52.920;6.238;2023-02-28T00:04:44;7.53;;;3.83;;
52322;SDS011;38263;52.920;6.238;2023-02-28T00:07:17;7.53;;;3.85;;
52322;SDS011;38263;52.920;6.238;2023-02-28T00:09:43;6.45;;;3.13;;
52322;SDS011;38263;52.920;6.238;2023-02-28T00:12:09;7.80;;;3.45;;
52322;SDS011;38263;52.920;6.238;2023-02-28T00:14:36;5.68;;;3.20;;
52322;SDS011;38263;52.920;6.238;2023-02-28T00:17:02;6.28;;;3.38;;
52322;SDS011;38263;52.920;6.238;2023-02-28T00:19:28;8.50;;;4.05;;
52322;SDS011;38263;52.920;6.238;2023-02-28T00:21:54;7.50;;;3.53;;
52322;SDS011;38263;52.920;6.238;2023-02-28T00:24:19;7.50;;;3.10;;
52322;SDS011;38263;52.920;6.238;2023-02-28T00:26:45;4.63;;;3.05;;
52322;SDS011;38263;52.920;6.238;2023-02-28T00:29:11;8.10;;;3.58;;
52322;SDS011;38263;52.920;6.238;2023-02-28T00:31:37;5.07;;;3.30;;
52322;SDS011;38263;52.920;6.238;2023-02-28T00:34:03;15.90;;;4.75;;
52322;SDS011;38263;52.920;6.238;2023-02-28T00:36:29;6.57;;;3.70;;
52322;SDS011;38263;52.920;6.238;2023-02-28T00:38:55;8.95;;;4.07;;
52322;SDS011;38263;52.920;6.238;2023-02-28T00:41:21;10.50;;;3.85;;
52322;SDS011;38263;52.920;6.238;2023-02-28T00:43:47;6.72;;;3.65;;
52322;SDS011;38263;52.920;6.238;2023-02-28T00:46:13;8.80;;;3.80;;
52322;SDS011;38263;52.920;6.238;2023-02-28T00:48:39;12.07;;;3.97;;
52322;SDS011;38263;52.920;6.238;2023-02-28T00:51:05;9.15;;;3.83;;
52322;SDS011;38263;52.920;6.238;2023-02-28T00:53:31;9.27;;;3.65;;
52322;SDS011;38263;52.920;6.238;2023-02-28T00:55:57;8.00;;;4.43;;
52322;SDS011;38263;52.920;6.238;2023-02-28T00:58:24;14.32;;;4.07;;
52322;SDS011;38263;52.920;6.238;2023-02-28T01:00:51;8.68;;;4.35;;
52322;SDS011;38263;52.920;6.238;2023-02-28T01:03:18;9.32;;;4.10;;
52322;SDS011;38263;52.920;6.238;2023-02-28T01:05:45;9.32;;;4.05;;
52322;SDS011;38263;52.920;6.238;2023-02-28T01:08:11;9.85;;;4.15;;
52322;SDS011;38263;52.920;6.238;2023-02-28T01:10:38;6.72;;;3.90;;
52322;SDS011;38263;52.920;6.238;2023-02-28T01:13:04;8.43;;;3.50;;
52322;SDS011;38263;52.920;6.238;2023-02-28T01:15:30;5.75;;;3.25;;
52322;SDS011;38263;52.920;6.238;2023-02-28T01:17:57;4.93;;;4.28;;
52322;SDS011;38263;52.920;6.238;2023-02-28T01:20:23;5.75;;;3.65;;
52322;SDS011;38263;52.920;6.238;2023-02-28T01:22:49;8.05;;;3.90;;
52322;SDS011;38263;52.920;6.238;2023-02-28T01:25:15;5.80;;;3.50;;
52322;SDS011;38263;52.920;6.238;2023-02-28T01:27:41;4.43;;;3.33;;
52322;SDS011;38263;52.920;6.238;2023-02-28T01:30:07;8.02;;;3.78;;
52322;SDS011;38263;52.920;6.238;2023-02-28T01:32:34;9.93;;;3.80;;
52322;SDS011;38263;52.920;6.238;2023-02-28T01:35:00;7.28;;;4.00;;
52322;SDS011;38263;52.920;6.238;2023-02-28T01:37:26;7.60;;;4.90;;
52322;SDS011;38263;52.920;6.238;2023-02-28T01:39:52;6.95;;;4.35;;
52322;SDS011;38263;52.920;6.238;2023-02-28T01:42:18;9.57;;;4.32;;
52322;SDS011;38263;52.920;6.238;2023-02-28T01:47:30;8.60;;;4.63;;
52322;SDS011;38263;52.920;6.238;2023-02-28T01:49:57;5.32;;;3.90;;
52322;SDS011;38263;52.920;6.238;2023-02-28T01:52:24;5.63;;;3.35;;
52322;SDS011;38263;52.920;6.238;2023-02-28T01:54:51;8.70;;;3.83;;
52322;SDS011;38263;52.920;6.238;2023-02-28T01:57:19;4.35;;;3.58;;
52322;SDS011;38263;52.920;6.238;2023-02-28T01:59:51;6.75;;;3.90;;
52322;SDS011;38263;52.920;6.238;2023-02-28T02:02:23;7.00;;;5.20;;
52322;SDS011;38263;52.920;6.238;2023-02-28T02:04:51;7.10;;;4.10;;
52322;SDS011;38263;52.920;6.238;2023-02-28T02:07:18;9.63;;;5.10;;
52322;SDS011;38263;52.920;6.238;2023-02-28T02:09:44;8.30;;;5.00;;
52322;SDS011;38263;52.920;6.238;2023-02-28T02:12:18;10.38;;;4.85;;
52322;SDS011;38263;52.920;6.238;2023-02-28T02:15:00;11.48;;;5.00;;
52322;SDS011;38263;52.920;6.238;2023-02-28T02:17:39;8.18;;;4.78;;
52322;SDS011;38263;52.920;6.238;2023-02-28T02:22:38;9.18;;;4.43;;
52322;SDS011;38263;52.920;6.238;2023-02-28T02:30:19;5.70;;;4.30;;
52322;SDS011;38263;52.920;6.238;2023-02-28T02:33:02;9.35;;;5.45;;
52322;SDS011;38263;52.920;6.238;2023-02-28T02:35:34;7.88;;;4.78;;
52322;SDS011;38263;52.920;6.238;2023-02-28T02:40:57;8.93;;;5.10;;
52322;SDS011;38263;52.920;6.238;2023-02-28T02:43:21;7.85;;;4.80;;
52322;SDS011;38263;52.920;6.238;2023-02-28T02:45:53;8.70;;;5.18;;
52322;SDS011;38263;52.920;6.238;2023-02-28T02:51:42;11.57;;;5.85;;
52322;SDS011;38263;52.920;6.238;2023-02-28T02:54:31;10.43;;;6.15;;
52322;SDS011;38263;52.920;6.238;2023-02-28T02:56:59;10.63;;;6.13;;
52322;SDS011;38263;52.920;6.238;2023-02-28T02:59:25;10.18;;;6.22;;
52322;SDS011;38263;52.920;6.238;2023-02-28T03:01:55;10.65;;;6.30;;
52322;SDS011;38263;52.920;6.238;2023-02-28T03:04:22;17.38;;;6.45;;
52322;SDS011;38263;52.920;6.238;2023-02-28T03:06:50;14.02;;;6.72;;
52322;SDS011;38263;52.920;6.238;2023-02-28T03:09:19;11.63;;;6.10;;
52322;SDS011;38263;52.920;6.238;2023-02-28T03:11:45;11.30;;;6.75;;
52322;SDS011;38263;52.920;6.238;2023-02-28T03:14:18;10.65;;;5.68;;
52322;SDS011;38263;52.920;6.238;2023-02-28T03:27:03;14.43;;;5.72;;
52322;SDS011;38263;52.920;6.238;2023-02-28T03:29:33;13.25;;;6.03;;
52322;SDS011;38263;52.920;6.238;2023-02-28T03:34:29;6.28;;;5.00;;
52322;SDS011;38263;52.920;6.238;2023-02-28T03:36:59;9.98;;;5.05;;
52322;SDS011;38263;52.920;6.238;2023-02-28T03:39:29;10.98;;;5.07;;
52322;SDS011;38263;52.920;6.238;2023-02-28T03:41:58;12.50;;;5.38;;
52322;SDS011;38263;52.920;6.238;2023-02-28T03:44:26;8.65;;;5.47;;
52322;SDS011;38263;52.920;6.238;2023-02-28T03:46:59;8.25;;;5.20;;
52322;SDS011;38263;52.920;6.238;2023-02-28T03:49:36;8.23;;;4.78;;
52322;SDS011;38263;52.920;6.238;2023-02-28T03:52:09;8.75;;;5.50;;
52322;SDS011;38263;52.920;6.238;2023-02-28T03:54:41;10.50;;;5.68;;
52322;SDS011;38263;52.920;6.238;2023-02-28T04:00:06;9.20;;;4.60;;
52322;SDS011;38263;52.920;6.238;2023-02-28T04:02:44;8.27;;;4.95;;
52322;SDS011;38263;52.920;6.238;2023-02-28T04:05:10;10.68;;;5.18;;
52322;SDS011;38263;52.920;6.238;2023-02-28T04:07:36;10.25;;;5.05;;
52322;SDS011;38263;52.920;6.238;2023-02-28T04:10:03;8.35;;;5.30;;
52322;SDS011;38263;52.920;6.238;2023-02-28T04:12:29;9.73;;;5.43;;
52322;SDS011;38263;52.920;6.238;2023-02-28T04:14:55;7.72;;;5.10;;
52322;SDS011;38263;52.920;6.238;2023-02-28T04:17:21;8.40;;;4.97;;
52322;SDS011;38263;52.920;6.238;2023-02-28T04:19:47;8.07;;;5.32;;
52322;SDS011;38263;52.920;6.238;2023-02-28T04:22:13;9.25;;;5.68;;
52322;SDS011;38263;52.920;6.238;2023-02-28T04:24:38;13.80;;;5.43;;
52322;SDS011;38263;52.920;6.238;2023-02-28T04:27:08;10.55;;;6.03;;
52322;SDS011;38263;52.920;6.238;2023-02-28T04:29:34;9.00;;;5.32;;
52322;SDS011;38263;52.920;6.238;2023-02-28T04:32:01;11.57;;;5.95;;
52322;SDS011;38263;52.920;6.238;2023-02-28T04:34:28;11.52;;;7.00;;
52322;SDS011;38263;52.920;6.238;2023-02-28T04:36:55;12.45;;;7.18;;
52322;SDS011;38263;52.920;6.238;2023-02-28T04:39:22;15.10;;;8.10;;
52322;SDS011;38263;52.920;6.238;2023-02-28T04:41:48;13.55;;;8.82;;
52322;SDS011;38263;52.920;6.238;2023-02-28T04:44:14;14.10;;;8.90;;
52322;SDS011;38263;52.920;6.238;2023-02-28T04:46:41;19.55;;;9.85;;
52322;SDS011;38263;52.920;6.238;2023-02-28T04:49:07;16.75;;;9.57;;
52322;SDS011;38263;52.920;6.238;2023-02-28T04:51:34;22.40;;;10.93;;
52322;SDS011;38263;52.920;6.238;2023-02-28T04:53:59;22.23;;;11.18;;
52322;SDS011;38263;52.920;6.238;2023-02-28T04:56:25;20.67;;;11.60;;
52322;SDS011;38263;52.920;6.238;2023-02-28T04:58:51;19.17;;;12.13;;
52322;SDS011;38263;52.920;6.238;2023-02-28T05:01:25;17.75;;;10.48;;
52322;SDS011;38263;52.920;6.238;2023-02-28T05:03:52;23.50;;;10.88;;
52322;SDS011;38263;52.920;6.238;2023-02-28T05:06:19;19.52;;;10.90;;
52322;SDS011;38263;52.920;6.238;2023-02-28T05:08:46;20.27;;;10.90;;
52322;SDS011;38263;52.920;6.238;2023-02-28T05:11:17;21.35;;;11.45;;
52322;SDS011;38263;52.920;6.238;2023-02-28T05:13:43;19.63;;;11.05;;
52322;SDS011;38263;52.920;6.238;2023-02-28T05:16:09;18.70;;;10.80;;
52322;SDS011;38263;52.920;6.238;2023-02-28T05:18:36;17.67;;;10.32;;
52322;SDS011;38263;52.920;6.238;2023-02-28T05:21:02;19.98;;;10.80;;
52322;SDS011;38263;52.920;6.238;2023-02-28T05:23:28;21.35;;;10.75;;
52322;SDS011;38263;52.920;6.238;2023-02-28T05:25:54;17.20;;;10.93;;
52322;SDS011;38263;52.920;6.238;2023-02-28T05:28:20;20.55;;;11.13;;
52322;SDS011;38263;52.920;6.238;2023-02-28T05:30:46;18.67;;;10.80;;
52322;SDS011;38263;52.920;6.238;2023-02-28T05:33:12;16.95;;;10.57;;
52322;SDS011;38263;52.920;6.238;2023-02-28T05:35:39;16.58;;;10.50;;
52322;SDS011;38263;52.920;6.238;2023-02-28T05:38:06;16.63;;;10.43;;
52322;SDS011;38263;52.920;6.238;2023-02-28T05:40:32;18.40;;;10.27;;
52322;SDS011;38263;52.920;6.238;2023-02-28T05:42:58;17.83;;;10.80;;
52322;SDS011;38263;52.920;6.238;2023-02-28T05:45:24;19.65;;;11.77;;
52322;SDS011;38263;52.920;6.238;2023-02-28T05:47:52;18.05;;;10.10;;
52322;SDS011;38263;52.920;6.238;2023-02-28T05:50:19;16.50;;;9.75;;
52322;SDS011;38263;52.920;6.238;2023-02-28T05:52:48;16.13;;;10.55;;
52322;SDS011;38263;52.920;6.238;2023-02-28T05:55:15;18.33;;;10.57;;
52322;SDS011;38263;52.920;6.238;2023-02-28T05:57:41;17.10;;;11.00;;
52322;SDS011;38263;52.920;6.238;2023-02-28T06:00:07;19.23;;;9.80;;
52322;SDS011;38263;52.920;6.238;2023-02-28T06:02:33;17.95;;;10.68;;
52322;SDS011;38263;52.920;6.238;2023-02-28T06:04:59;19.08;;;10.88;;
52322;SDS011;38263;52.920;6.238;2023-02-28T06:07:25;21.00;;;11.75;;
52322;SDS011;38263;52.920;6.238;2023-02-28T06:09:51;17.38;;;11.00;;
52322;SDS011;38263;52.920;6.238;2023-02-28T06:12:17;19.45;;;11.32;;
52322;SDS011;38263;52.920;6.238;2023-02-28T06:14:43;23.13;;;11.55;;
52322;SDS011;38263;52.920;6.238;2023-02-28T06:17:09;20.23;;;10.95;;
52322;SDS011;38263;52.920;6.238;2023-02-28T06:19:36;22.27;;;12.10;;
52322;SDS011;38263;52.920;6.238;2023-02-28T06:22:03;22.92;;;11.65;;
52322;SDS011;38263;52.920;6.238;2023-02-28T06:24:30;20.35;;;11.88;;
52322;SDS011;38263;52.920;6.238;2023-02-28T06:26:56;20.38;;;11.27;;
52322;SDS011;38263;52.920;6.238;2023-02-28T06:29:29;20.00;;;10.95;;
52322;SDS011;38263;52.920;6.238;2023-02-28T06:31:55;20.13;;;12.32;;
52322;SDS011;38263;52.920;6.238;2023-02-28T06:34:21;18.50;;;12.25;;
52322;SDS011;38263;52.920;6.238;2023-02-28T06:36:50;22.17;;;11.90;;
52322;SDS011;38263;52.920;6.238;2023-02-28T06:39:16;24.58;;;12.30;;
52322;SDS011;38263;52.920;6.238;2023-02-28T06:41:42;21.85;;;11.88;;
52322;SDS011;38263;52.920;6.238;2023-02-28T06:44:15;21.92;;;12.13;;
52322;SDS011;38263;52.920;6.238;2023-02-28T06:46:42;27.38;;;13.07;;
52322;SDS011;38263;52.920;6.238;2023-02-28T06:49:09;19.02;;;11.98;;
52322;SDS011;38263;52.920;6.238;2023-02-28T06:51:36;17.77;;;11.48;;
52322;SDS011;38263;52.920;6.238;2023-02-28T06:54:02;20.13;;;11.57;;
52322;SDS011;38263;52.920;6.238;2023-02-28T06:56:29;20.67;;;12.02;;
52322;SDS011;38263;52.920;6.238;2023-02-28T06:58:55;18.50;;;11.85;;
52322;SDS011;38263;52.920;6.238;2023-02-28T07:01:21;20.23;;;11.63;;
52322;SDS011;38263;52.920;6.238;2023-02-28T07:03:50;18.60;;;12.02;;
52322;SDS011;38263;52.920;6.238;2023-02-28T07:06:19;22.98;;;12.85;;
52322;SDS011;38263;52.920;6.238;2023-02-28T07:08:47;20.10;;;11.93;;
52322;SDS011;38263;52.920;6.238;2023-02-28T07:11:13;20.95;;;12.27;;
52322;SDS011;38263;52.920;6.238;2023-02-28T07:13:40;21.05;;;12.18;;
52322;SDS011;38263;52.920;6.238;2023-02-28T07:16:07;17.50;;;10.68;;
52322;SDS011;38263;52.920;6.238;2023-02-28T07:18:33;20.25;;;12.02;;
52322;SDS011;38263;52.920;6.238;2023-02-28T07:21:01;16.15;;;11.60;;
52322;SDS011;38263;52.920;6.238;2023-02-28T07:23:27;18.17;;;11.57;;
52322;SDS011;38263;52.920;6.238;2023-02-28T07:25:53;16.38;;;11.25;;
52322;SDS011;38263;52.920;6.238;2023-02-28T07:28:19;19.55;;;12.38;;
52322;SDS011;38263;52.920;6.238;2023-02-28T07:30:45;21.20;;;11.55;;
52322;SDS011;38263;52.920;6.238;2023-02-28T07:33:11;18.05;;;12.07;;
52322;SDS011;38263;52.920;6.238;2023-02-28T07:35:37;19.80;;;12.15;;
52322;SDS011;38263;52.920;6.238;2023-02-28T07:38:03;20.52;;;11.90;;
52322;SDS011;38263;52.920;6.238;2023-02-28T07:40:29;22.73;;;11.95;;
52322;SDS011;38263;52.920;6.238;2023-02-28T07:42:55;19.23;;;12.48;;
52322;SDS011;38263;52.920;6.238;2023-02-28T07:45:21;19.52;;;11.85;;
52322;SDS011;38263;52.920;6.238;2023-02-28T07:47:47;20.15;;;12.82;;
52322;SDS011;38263;52.920;6.238;2023-02-28T07:50:14;18.98;;;11.52;;
52322;SDS011;38263;52.920;6.238;2023-02-28T07:52:40;18.45;;;12.25;;
52322;SDS011;38263;52.920;6.238;2023-02-28T07:55:07;20.25;;;12.98;;
52322;SDS011;38263;52.920;6.238;2023-02-28T07:57:34;21.85;;;12.25;;
52322;SDS011;38263;52.920;6.238;2023-02-28T08:00:00;19.50;;;12.88;;
52322;SDS011;38263;52.920;6.238;2023-02-28T08:02:28;22.85;;;12.65;;
52322;SDS011;38263;52.920;6.238;2023-02-28T08:04:54;21.48;;;12.95;;
52322;SDS011;38263;52.920;6.238;2023-02-28T08:07:20;23.35;;;12.98;;
52322;SDS011;38263;52.920;6.238;2023-02-28T08:09:46;20.30;;;12.80;;
52322;SDS011;38263;52.920;6.238;2023-02-28T08:12:12;20.50;;;12.82;;
52322;SDS011;38263;52.920;6.238;2023-02-28T08:14:38;20.45;;;12.57;;
52322;SDS011;38263;52.920;6.238;2023-02-28T08:17:04;20.08;;;12.93;;
52322;SDS011;38263;52.920;6.238;2023-02-28T08:19:30;22.33;;;14.10;;
52322;SDS011;38263;52.920;6.238;2023-02-28T08:21:56;23.10;;;12.75;;
52322;SDS011;38263;52.920;6.238;2023-02-28T08:24:23;23.90;;;14.07;;
52322;SDS011;38263;52.920;6.238;2023-02-28T08:26:49;20.65;;;12.68;;
52322;SDS011;38263;52.920;6.238;2023-02-28T08:29:15;22.52;;;13.13;;
52322;SDS011;38263;52.920;6.238;2023-02-28T08:31:41;20.63;;;13.20;;
52322;SDS011;38263;52.920;6.238;2023-02-28T08:34:07;21.55;;;12.27;;
52322;SDS011;38263;52.920;6.238;2023-02-28T08:36:34;19.58;;;11.93;;
52322;SDS011;38263;52.920;6.238;2023-02-28T08:39:00;20.95;;;13.43;;
52322;SDS011;38263;52.920;6.238;2023-02-28T08:41:26;21.83;;;13.10;;
52322;SDS011;38263;52.920;6.238;2023-02-28T08:43:52;20.27;;;13.77;;
52322;SDS011;38263;52.920;6.238;2023-02-28T08:46:18;23.00;;;13.25;;
52322;SDS011;38263;52.920;6.238;2023-02-28T08:48:44;19.05;;;11.38;;
52322;SDS011;38263;52.920;6.238;2023-02-28T08:51:11;19.80;;;12.90;;
52322;SDS011;38263;52.920;6.238;2023-02-28T08:53:39;18.70;;;12.10;;
52322;SDS011;38263;52.920;6.238;2023-02-28T08:56:07;21.33;;;13.20;;
52322;SDS011;38263;52.920;6.238;2023-02-28T08:58:33;20.75;;;13.85;;
52322;SDS011;38263;52.920;6.238;2023-02-28T09:00:59;20.00;;;12.48;;
52322;SDS011;38263;52.920;6.238;2023-02-28T09:03:25;21.67;;;13.65;;
52322;SDS011;38263;52.920;6.238;2023-02-28T09:05:58;22.38;;;13.48;;
52322;SDS011;38263;52.920;6.238;2023-02-28T09:08:24;21.77;;;12.80;;
52322;SDS011;38263;52.920;6.238;2023-02-28T09:10:51;19.15;;;12.10;;
52322;SDS011;38263;52.920;6.238;2023-02-28T09:13:17;23.02;;;12.85;;
52322;SDS011;38263;52.920;6.238;2023-02-28T09:15:43;17.40;;;12.32;;
52322;SDS011;38263;52.920;6.238;2023-02-28T09:18:09;18.52;;;11.90;;
52322;SDS011;38263;52.920;6.238;2023-02-28T09:20:39;19.55;;;12.63;;
52322;SDS011;38263;52.920;6.238;2023-02-28T09:23:06;15.68;;;11.02;;
52322;SDS011;38263;52.920;6.238;2023-02-28T09:25:33;16.70;;;11.13;;
52322;SDS011;38263;52.920;6.238;2023-02-28T09:27:59;14.90;;;10.82;;
52322;SDS011;38263;52.920;6.238;2023-02-28T09:30:25;16.60;;;11.38;;
52322;SDS011;38263;52.920;6.238;2023-02-28T09:32:51;21.65;;;12.05;;
52322;SDS011;38263;52.920;6.238;2023-02-28T09:35:18;14.57;;;10.20;;
52322;SDS011;38263;52.920;6.238;2023-02-28T09:37:46;17.80;;;11.15;;
52322;SDS011;38263;52.920;6.238;2023-02-28T09:40:12;12.27;;;9.05;;
52322;SDS011;38263;52.920;6.238;2023-02-28T09:42:39;12.93;;;9.93;;
52322;SDS011;38263;52.920;6.238;2023-02-28T09:45:06;10.48;;;8.55;;
52322;SDS011;38263;52.920;6.238;2023-02-28T09:47:59;10.65;;;7.88;;
52322;SDS011;38263;52.920;6.238;2023-02-28T09:50:30;9.75;;;6.90;;
52322;SDS011;38263;52.920;6.238;2023-02-28T09:53:06;9.55;;;7.18;;
52322;SDS011;38263;52.920;6.238;2023-02-28T09:55:42;9.43;;;7.40;;
52322;SDS011;38263;52.920;6.238;2023-02-28T09:58:21;9.38;;;6.95;;
52322;SDS011;38263;52.920;6.238;2023-02-28T10:00:57;9.20;;;7.22;;
52322;SDS011;38263;52.920;6.238;2023-02-28T10:03:36;8.85;;;7.10;;
52322;SDS011;38263;52.920;6.238;2023-02-28T10:06:07;9.52;;;7.20;;
52322;SDS011;38263;52.920;6.238;2023-02-28T10:08:49;9.60;;;6.40;;
52322;SDS011;38263;52.920;6.238;2023-02-28T10:11:17;8.57;;;4.80;;
52322;SDS011;38263;52.920;6.238;2023-02-28T10:13:56;7.32;;;3.47;;
52322;SDS011;38263;52.920;6.238;2023-02-28T10:16:45;5.40;;;3.97;;
52322;SDS011;38263;52.920;6.238;2023-02-28T10:21:39;5.47;;;3.80;;
52322;SDS011;38263;52.920;6.238;2023-02-28T10:24:34;6.18;;;3.45;;
52322;SDS011;38263;52.920;6.238;2023-02-28T10:27:09;7.10;;;3.60;;
52322;SDS011;38263;52.920;6.238;2023-02-28T10:29:43;5.80;;;3.53;;
52322;SDS011;38263;52.920;6.238;2023-02-28T10:32:12;4.80;;;3.35;;
52322;SDS011;38263;52.920;6.238;2023-02-28T10:34:41;3.72;;;2.90;;
52322;SDS011;38263;52.920;6.238;2023-02-28T10:37:07;4.70;;;3.78;;
52322;SDS011;38263;52.920;6.238;2023-02-28T10:39:36;4.95;;;2.88;;
52322;SDS011;38263;52.920;6.238;2023-02-28T10:42:04;3.20;;;2.10;;
52322;SDS011;38263;52.920;6.238;2023-02-28T10:44:30;4.10;;;2.72;;
52322;SDS011;38263;52.920;6.238;2023-02-28T10:46:56;5.95;;;3.65;;
52322;SDS011;38263;52.920;6.238;2023-02-28T10:49:23;5.55;;;3.55;;
52322;SDS011;38263;52.920;6.238;2023-02-28T10:51:53;6.70;;;3.88;;
52322;SDS011;38263;52.920;6.238;2023-02-28T10:54:23;5.70;;;3.70;;
52322;SDS011;38263;52.920;6.238;2023-02-28T10:57:06;4.95;;;3.50;;
52322;SDS011;38263;52.920;6.238;2023-02-28T10:59:34;5.05;;;2.60;;
52322;SDS011;38263;52.920;6.238;2023-02-28T11:02:00;5.43;;;3.05;;
52322;SDS011;38263;52.920;6.238;2023-02-28T11:07:01;4.80;;;3.13;;
52322;SDS011;38263;52.920;6.238;2023-02-28T11:09:34;4.45;;;3.38;;
52322;SDS011;38263;52.920;6.238;2023-02-28T11:12:02;3.70;;;2.50;;
52322;SDS011;38263;52.920;6.238;2023-02-28T11:14:31;2.83;;;1.35;;
52322;SDS011;38263;52.920;6.238;2023-02-28T11:20:02;3.20;;;2.10;;
52322;SDS011;38263;52.920;6.238;2023-02-28T11:22:39;3.90;;;2.85;;
52322;SDS011;38263;52.920;6.238;2023-02-28T11:25:13;5.20;;;2.63;;
52322;SDS011;38263;52.920;6.238;2023-02-28T11:27:47;8.77;;;2.90;;
52322;SDS011;38263;52.920;6.238;2023-02-28T11:35:47;5.03;;;3.05;;
52322;SDS011;38263;52.920;6.238;2023-02-28T11:38:14;6.03;;;3.45;;
52322;SDS011;38263;52.920;6.238;2023-02-28T11:45:55;4.28;;;3.15;;
52322;SDS011;38263;52.920;6.238;2023-02-28T11:51:16;7.18;;;3.80;;
52322;SDS011;38263;52.920;6.238;2023-02-28T11:56:31;6.60;;;4.18;;
52322;SDS011;38263;52.920;6.238;2023-02-28T12:04:23;5.57;;;3.70;;
52322;SDS011;38263;52.920;6.238;2023-02-28T12:07:16;5.78;;;3.70;;
52322;SDS011;38263;52.920;6.238;2023-02-28T12:09:53;5.70;;;3.08;;
52322;SDS011;38263;52.920;6.238;2023-02-28T12:18:08;6.85;;;3.83;;
52322;SDS011;38263;52.920;6.238;2023-02-28T12:26:16;6.07;;;3.80;;
52322;SDS011;38263;52.920;6.238;2023-02-28T12:28:53;5.50;;;3.58;;
52322;SDS011;38263;52.920;6.238;2023-02-28T12:31:21;6.93;;;3.85;;
52322;SDS011;38263;52.920;6.238;2023-02-28T12:33:52;5.57;;;4.15;;
52322;SDS011;38263;52.920;6.238;2023-02-28T12:36:21;5.22;;;3.67;;
52322;SDS011;38263;52.920;6.238;2023-02-28T12:41:26;6.38;;;3.72;;
52322;SDS011;38263;52.920;6.238;2023-02-28T12:43:56;5.25;;;3.75;;
52322;SDS011;38263;52.920;6.238;2023-02-28T12:46:32;6.60;;;4.88;;
52322;SDS011;38263;52.920;6.238;2023-02-28T12:48:59;6.53;;;4.05;;
52322;SDS011;38263;52.920;6.238;2023-02-28T12:51:26;5.88;;;4.15;;
52322;SDS011;38263;52.920;6.238;2023-02-28T12:53:54;5.60;;;4.38;;
52322;SDS011;38263;52.920;6.238;2023-02-28T12:59:13;7.70;;;4.50;;
52322;SDS011;38263;52.920;6.238;2023-02-28T13:04:24;5.15;;;4.03;;
52322;SDS011;38263;52.920;6.238;2023-02-28T13:09:38;6.55;;;3.90;;
52322;SDS011;38263;52.920;6.238;2023-02-28T13:12:14;4.82;;;4.25;;
52322;SDS011;38263;52.920;6.238;2023-02-28T13:14:41;5.97;;;3.95;;
52322;SDS011;38263;52.920;6.238;2023-02-28T13:22:20;4.78;;;3.72;;
52322;SDS011;38263;52.920;6.238;2023-02-28T13:24:47;6.00;;;3.95;;
52322;SDS011;38263;52.920;6.238;2023-02-28T13:29:40;6.95;;;4.28;;
52322;SDS011;38263;52.920;6.238;2023-02-28T13:47:23;8.15;;;4.30;;
52322;SDS011;38263;52.920;6.238;2023-02-28T13:49:50;6.80;;;3.92;;
52322;SDS011;38263;52.920;6.238;2023-02-28T13:52:20;6.50;;;4.07;;
52322;SDS011;38263;52.920;6.238;2023-02-28T13:55:11;4.10;;;3.67;;
52322;SDS011;38263;52.920;6.238;2023-02-28T14:00:41;5.82;;;3.60;;
52322;SDS011;38263;52.920;6.238;2023-02-28T14:08:38;6.55;;;3.80;;
52322;SDS011;38263;52.920;6.238;2023-02-28T14:11:23;9.20;;;4.00;;
52322;SDS011;38263;52.920;6.238;2023-02-28T14:13:49;5.65;;;3.60;;
52322;SDS011;38263;52.920;6.238;2023-02-28T14:16:23;6.65;;;4.15;;
52322;SDS011;38263;52.920;6.238;2023-02-28T14:26:49;7.63;;;3.67;;
52322;SDS011;38263;52.920;6.238;2023-02-28T14:37:00;5.45;;;4.03;;
52322;SDS011;38263;52.920;6.238;2023-02-28T14:39:27;5.38;;;4.03;;
52322;SDS011;38263;52.920;6.238;2023-02-28T14:41:55;8.05;;;4.97;;
52322;SDS011;38263;52.920;6.238;2023-02-28T14:44:27;6.88;;;4.57;;
52322;SDS011;38263;52.920;6.238;2023-02-28T14:46:53;8.50;;;4.63;;
52322;SDS011;38263;52.920;6.238;2023-02-28T14:49:21;5.47;;;4.20;;
52322;SDS011;38263;52.920;6.238;2023-02-28T14:51:49;6.55;;;4.60;;
52322;SDS011;38263;52.920;6.238;2023-02-28T14:54:15;7.90;;;3.88;;
52322;SDS011;38263;52.920;6.238;2023-02-28T14:56:49;6.40;;;4.35;;
52322;SDS011;38263;52.920;6.238;2023-02-28T14:59:26;4.45;;;3.80;;
52322;SDS011;38263;52.920;6.238;2023-02-28T15:02:12;6.15;;;3.90;;
52322;SDS011;38263;52.920;6.238;2023-02-28T15:04:59;6.85;;;4.32;;
52322;SDS011;38263;52.920;6.238;2023-02-28T15:07:25;5.68;;;3.92;;
52322;SDS011;38263;52.920;6.238;2023-02-28T15:12:45;6.70;;;4.32;;
52322;SDS011;38263;52.920;6.238;2023-02-28T15:15:16;4.88;;;3.17;;
52322;SDS011;38263;52.920;6.238;2023-02-28T15:17:44;4.93;;;3.85;;
52322;SDS011;38263;52.920;6.238;2023-02-28T15:20:14;5.80;;;3.67;;
52322;SDS011;38263;52.920;6.238;2023-02-28T15:22:41;8.65;;;3.63;;
52322;SDS011;38263;52.920;6.238;2023-02-28T15:25:09;5.28;;;4.10;;
52322;SDS011;38263;52.920;6.238;2023-02-28T15:27:40;7.97;;;4.05;;
52322;SDS011;38263;52.920;6.238;2023-02-28T15:30:17;4.40;;;3.72;;
52322;SDS011;38263;52.920;6.238;2023-02-28T15:33:01;6.45;;;3.42;;
52322;SDS011;38263;52.920;6.238;2023-02-28T15:35:36;5.60;;;3.88;;
52322;SDS011;38263;52.920;6.238;2023-02-28T15:40:44;5.35;;;4.03;;
52322;SDS011;38263;52.920;6.238;2023-02-28T15:43:28;5.75;;;3.95;;
52322;SDS011;38263;52.920;6.238;2023-02-28T15:48:27;5.57;;;3.72;;
52322;SDS011;38263;52.920;6.238;2023-02-28T15:51:20;5.72;;;4.30;;
52322;SDS011;38263;52.920;6.238;2023-02-28T15:53:59;6.93;;;3.65;;
52322;SDS011;38263;52.920;6.238;2023-02-28T15:56:28;5.22;;;3.88;;
52322;SDS011;38263;52.920;6.238;2023-02-28T15:58:56;5.93;;;4.10;;
52322;SDS011;38263;52.920;6.238;2023-02-28T16:01:28;6.00;;;3.58;;
52322;SDS011;38263;52.920;6.238;2023-02-28T16:04:05;5.35;;;4.10;;
52322;SDS011;38263;52.920;6.238;2023-02-28T16:06:39;5.35;;;3.95;;
52322;SDS011;38263;52.920;6.238;2023-02-28T16:09:10;6.85;;;4.30;;
52322;SDS011;38263;52.920;6.238;2023-02-28T16:11:38;9.65;;;4.43;;
52322;SDS011;38263;52.920;6.238;2023-02-28T16:14:08;7.25;;;4.55;;
52322;SDS011;38263;52.920;6.238;2023-02-28T16:16:41;5.82;;;4.60;;
52322;SDS011;38263;52.920;6.238;2023-02-28T16:19:08;11.43;;;6.10;;
52322;SDS011;38263;52.920;6.238;2023-02-28T16:21:35;7.35;;;4.57;;
52322;SDS011;38263;52.920;6.238;2023-02-28T16:24:01;5.35;;;4.28;;
52322;SDS011;38263;52.920;6.238;2023-02-28T16:26:27;11.25;;;4.63;;
52322;SDS011;38263;52.920;6.238;2023-02-28T16:28:53;6.75;;;4.85;;
52322;SDS011;38263;52.920;6.238;2023-02-28T16:31:19;6.90;;;5.25;;
52322;SDS011;38263;52.920;6.238;2023-02-28T16:33:45;7.15;;;4.65;;
52322;SDS011;38263;52.920;6.238;2023-02-28T16:36:15;7.43;;;4.68;;
52322;SDS011;38263;52.920;6.238;2023-02-28T16:38:42;5.28;;;4.47;;
52322;SDS011;38263;52.920;6.238;2023-02-28T16:41:07;7.32;;;4.55;;
52322;SDS011;38263;52.920;6.238;2023-02-28T16:43:41;6.40;;;4.15;;
52322;SDS011;38263;52.920;6.238;2023-02-28T16:46:08;4.82;;;3.92;;
52322;SDS011;38263;52.920;6.238;2023-02-28T16:48:35;6.35;;;4.78;;
52322;SDS011;38263;52.920;6.238;2023-02-28T16:51:02;11.07;;;4.50;;
52322;SDS011;38263;52.920;6.238;2023-02-28T16:53:29;7.30;;;4.10;;
52322;SDS011;38263;52.920;6.238;2023-02-28T16:55:55;8.65;;;4.75;;
52322;SDS011;38263;52.920;6.238;2023-02-28T16:58:21;7.65;;;4.20;;
52322;SDS011;38263;52.920;6.238;2023-02-28T17:00:50;5.93;;;4.32;;
52322;SDS011;38263;52.920;6.238;2023-02-28T17:03:24;7.68;;;5.32;;
52322;SDS011;38263;52.920;6.238;2023-02-28T17:05:52;5.65;;;4.70;;
52322;SDS011;38263;52.920;6.238;2023-02-28T17:08:18;7.05;;;4.43;;